Time;durP1;ratioP1;P1;durP2;ratioP2;P2;SDS_P1;SDS_P2;PMS_P1;PMS_P2;Temp;Humidity;BMP_temperature;BMP_pressure;BME280_temperature;BME280_humidity;BME280_pressure;Samples;Min_cycle;Max_cycle;Signal;HPM_P1;HPM_P2
2022/02/05 00:01:56;;;;;;;13.90;6.70;;;;;;;7.22;60.15;98318.98;221024;1277;139687;-57
2022/02/05 00:06:59;;;;;;;11.10;6.90;;;;;;;7.21;60.09;98316.00;220952;1279;139896;-56
2022/02/05 00:43:48;;;;;;;13.10;7.20;;;;;;;7.08;60.38;98299.88;220875;1277;139086;-56
2022/02/05 00:48:51;;;;;;;11.60;6.50;;;;;;;7.10;60.12;98305.94;220974;1279;140643;-58
2022/02/05 00:54:08;;;;;;;10.90;6.40;;;;;;;7.09;60.13;98306.52;220499;1278;138553;-56
2022/02/05 00:59:19;;;;;;;10.80;6.30;;;;;;;7.09;60.56;98307.90;220822;1279;139775;-57
2022/02/05 01:04:22;;;;;;;10.50;6.40;;;;;;;7.09;60.43;98305.80;220772;1277;139664;-57
2022/02/05 01:09:26;;;;;;;10.30;7.10;;;;;;;7.10;60.48;98303.98;220759;1279;138567;-56
2022/02/05 01:14:40;;;;;;;8.80;6.40;;;;;;;7.14;60.38;98302.17;220800;1278;139458;-59
2022/02/05 01:25:23;;;;;;;8.40;6.20;;;;;;;7.18;60.36;98295.72;220428;1279;140457;-59
2022/02/05 01:30:34;;;;;;;12.60;7.50;;;;;;;7.19;60.51;98297.26;220792;1280;139183;-58
2022/02/05 01:36:30;;;;;;;11.10;6.90;;;;;;;7.22;60.40;98301.15;220567;1280;139177;-58
2022/02/05 01:57:05;;;;;;;12.50;7.10;;;;;;;7.15;60.38;98303.14;220450;1280;140472;-56
2022/02/05 02:23:41;;;;;;;9.90;5.70;;;;;;;7.22;60.30;98289.50;220694;1279;139109;-58
2022/02/05 02:34:00;;;;;;;7.50;5.50;;;;;;;7.18;60.44;98296.10;220853;1279;138847;-60
2022/02/05 02:39:12;;;;;;;8.30;5.50;;;;;;;7.18;60.25;98298.74;221030;1277;139922;-57
2022/02/05 02:44:15;;;;;;;10.30;5.40;;;;;;;7.18;60.35;98297.34;220737;1278;139854;-55
2022/02/05 02:49:35;;;;;;;9.60;6.00;;;;;;;7.16;60.24;98304.14;220751;1279;139350;-57
2022/02/05 03:00:04;;;;;;;9.90;5.80;;;;;;;7.17;60.40;98306.41;220795;1279;139544;-56
2022/02/05 03:05:07;;;;;;;6.70;5.00;;;;;;;7.18;60.43;98306.30;220791;1279;139821;-56
2022/02/05 03:10:10;;;;;;;8.80;5.50;;;;;;;7.20;60.45;98303.05;220789;1278;139150;-57
2022/02/05 03:15:15;;;;;;;7.40;5.20;;;;;;;7.20;60.56;98302.16;220911;1279;138931;-56
2022/02/05 03:20:19;;;;;;;10.20;5.50;;;;;;;7.17;60.57;98305.13;220668;1280;139001;-58
2022/02/05 03:25:22;;;;;;;10.90;5.60;;;;;;;7.19;60.74;98305.76;220838;1279;139259;-55
2022/02/05 03:30:26;;;;;;;8.80;5.20;;;;;;;7.20;60.73;98306.77;220839;1279;139453;-54
2022/02/05 03:35:29;;;;;;;7.10;5.10;;;;;;;7.22;60.48;98311.92;220684;1279;139370;-56
2022/02/05 03:40:32;;;;;;;6.70;5.20;;;;;;;7.21;60.40;98315.31;220843;1277;138521;-56
2022/02/05 03:45:35;;;;;;;11.00;5.80;;;;;;;7.23;60.57;98316.98;220897;1277;138916;-56
2022/02/05 03:50:38;;;;;;;7.40;5.00;;;;;;;7.23;60.42;98307.98;220983;1279;138794;-55
2022/02/05 03:55:45;;;;;;;8.00;4.90;;;;;;;7.23;60.57;98311.32;220781;1280;140000;-57
2022/02/05 04:00:48;;;;;;;8.30;5.10;;;;;;;7.24;60.48;98311.27;220876;1279;139179;-58
2022/02/05 04:05:51;;;;;;;8.20;5.00;;;;;;;7.26;60.54;98315.36;220802;1280;138439;-58
2022/02/05 04:11:06;;;;;;;8.30;4.90;;;;;;;7.29;60.64;98318.90;220357;1278;138681;-58
2022/02/05 04:21:12;;;;;;;7.40;4.90;;;;;;;7.33;60.91;98319.67;221012;1279;139843;-55
2022/02/05 04:26:17;;;;;;;7.90;4.60;;;;;;;7.33;60.95;98326.92;220952;1279;139004;-56
2022/02/05 04:31:20;;;;;;;9.60;5.50;;;;;;;7.34;61.06;98336.02;220781;1279;138900;-61
2022/02/05 04:36:24;;;;;;;6.90;5.20;;;;;;;7.34;61.30;98332.02;220919;1279;139129;-60
2022/02/05 04:42:19;;;;;;;8.50;5.30;;;;;;;7.31;61.49;98330.23;220930;1278;139817;-59
2022/02/05 04:57:38;;;;;;;6.30;4.70;;;;;;;7.39;61.80;98338.58;220839;1279;139260;-60
2022/02/05 05:24:17;;;;;;;10.60;7.30;;;;;;;7.70;62.28;98396.88;220746;1280;139337;-56
2022/02/05 05:29:21;;;;;;;5.80;4.40;;;;;;;7.62;62.11;98427.52;220771;1279;139886;-59
2022/02/05 05:34:24;;;;;;;6.00;4.20;;;;;;;7.38;62.18;98444.34;220750;1279;138848;-56
2022/02/05 05:39:35;;;;;;;5.90;4.20;;;;;;;7.13;62.53;98457.45;220764;1279;139233;-57
2022/02/05 05:46:00;;;;;;;3.10;1.90;;;;;;;6.98;62.54;98485.30;220909;1279;139844;-58
2022/02/05 05:50:34;;;;;;;2.00;1.30;;;;;;;6.78;62.39;98492.77;220716;1277;140380;-58
2022/02/05 05:55:33;;;;;;;3.10;2.00;;;;;;;6.68;62.61;98499.99;220979;1277;139059;-58
2022/02/05 06:00:36;;;;;;;2.90;1.70;;;;;;;6.64;62.56;98519.98;220800;1278;138653;-58
2022/02/05 06:05:39;;;;;;;2.30;1.50;;;;;;;6.51;62.53;98542.34;220727;1278;140599;-58
2022/02/05 06:10:45;;;;;;;2.60;1.60;;;;;;;6.35;62.22;98550.75;220763;1279;140496;-58
2022/02/05 06:15:50;;;;;;;2.50;1.30;;;;;;;6.19;62.18;98555.52;220859;1279;138835;-58
2022/02/05 06:20:53;;;;;;;2.60;1.40;;;;;;;6.03;62.21;98578.14;220881;1279;139718;-58
2022/02/05 06:25:57;;;;;;;2.10;1.40;;;;;;;5.91;62.27;98598.09;220854;1279;138551;-57
2022/02/05 06:31:00;;;;;;;2.70;1.40;;;;;;;5.81;62.03;98621.11;220830;1279;138315;-56
2022/02/05 06:36:03;;;;;;;1.50;1.20;;;;;;;5.71;62.55;98634.81;220881;1279;139004;-59
2022/02/05 06:41:06;;;;;;;2.10;1.40;;;;;;;5.64;62.52;98650.48;220725;1279;138921;-57
2022/02/05 06:46:09;;;;;;;2.00;1.20;;;;;;;5.62;62.42;98667.45;220719;1279;139028;-56
2022/02/05 06:51:15;;;;;;;2.90;1.30;;;;;;;5.62;62.33;98682.56;220958;1279;139292;-54
2022/02/05 06:56:18;;;;;;;2.90;1.20;;;;;;;5.60;62.51;98691.30;220896;1279;139175;-57
2022/02/05 07:01:22;;;;;;;1.50;1.10;;;;;;;5.56;62.13;98700.64;220901;1277;139267;-55
2022/02/05 07:06:26;;;;;;;2.80;1.20;;;;;;;5.50;62.17;98712.16;220876;1278;138818;-55
2022/02/05 07:11:35;;;;;;;3.10;1.20;;;;;;;5.46;61.85;98722.23;220841;1277;139519;-57
2022/02/05 07:16:41;;;;;;;2.20;1.10;;;;;;;5.43;62.22;98726.03;220844;1278;138900;-57
2022/02/05 07:21:50;;;;;;;3.70;1.20;;;;;;;5.46;62.11;98729.23;220618;1277;138588;-57
2022/02/05 07:32:14;;;;;;;3.00;1.40;;;;;;;5.43;61.99;98744.36;220895;1277;139863;-57
2022/02/05 07:37:17;;;;;;;1.90;1.10;;;;;;;5.40;61.73;98756.80;220841;1278;138644;-57
2022/02/05 07:42:20;;;;;;;3.10;1.50;;;;;;;5.39;61.80;98760.33;220857;1279;138814;-57
2022/02/05 07:47:32;;;;;;;3.00;1.20;;;;;;;5.40;61.63;98771.57;220673;1279;138612;-58
2022/02/05 07:52:36;;;;;;;5.60;1.40;;;;;;;5.34;61.62;98776.40;220638;1278;138476;-57
2022/02/05 07:57:39;;;;;;;3.80;1.70;;;;;;;5.28;61.51;98786.20;221044;1277;139902;-57
2022/02/05 08:02:43;;;;;;;3.60;2.10;;;;;;;5.25;61.55;98796.16;221102;1277;139183;-57
2022/02/05 08:07:46;;;;;;;2.60;1.80;;;;;;;5.25;61.49;98808.70;220809;1279;140467;-56
2022/02/05 08:12:54;;;;;;;4.00;2.10;;;;;;;5.27;61.48;98817.02;220797;1280;140074;-57
2022/02/05 08:17:58;;;;;;;6.30;2.40;;;;;;;5.24;61.45;98825.58;220953;1277;139325;-57
2022/02/05 08:23:01;;;;;;;6.20;2.20;;;;;;;5.30;61.37;98838.16;220317;1280;138701;-58
2022/02/05 08:28:04;;;;;;;5.20;2.00;;;;;;;5.43;61.57;98844.95;220868;1277;139564;-58
2022/02/05 08:33:07;;;;;;;3.70;1.40;;;;;;;5.49;61.01;98854.03;220853;1279;139552;-59
2022/02/05 08:38:10;;;;;;;6.50;2.40;;;;;;;5.52;60.77;98859.16;220677;1279;139024;-59
2022/02/05 08:43:13;;;;;;;5.30;1.50;;;;;;;5.53;60.54;98864.95;220842;1278;139198;-62
2022/02/05 08:48:16;;;;;;;6.00;1.90;;;;;;;5.52;60.15;98864.63;220679;1279;138964;-59
2022/02/05 08:53:21;;;;;;;3.80;1.50;;;;;;;5.49;60.39;98854.23;220765;1279;139117;-59
2022/02/05 08:58:25;;;;;;;5.50;2.20;;;;;;;5.54;60.23;98863.50;220738;1279;138771;-57
2022/02/05 09:03:34;;;;;;;5.00;1.80;;;;;;;5.56;60.35;98865.50;220901;1277;138913;-59
2022/02/05 09:08:44;;;;;;;4.90;1.70;;;;;;;5.63;60.00;98872.94;220957;1280;139658;-58
2022/02/05 09:18:50;;;;;;;6.10;2.00;;;;;;;5.75;59.84;98885.97;220912;1277;139271;-59
2022/02/05 09:23:54;;;;;;;5.20;2.10;;;;;;;5.83;59.45;98891.96;220677;1277;139102;-57
2022/02/05 09:29:22;;;;;;;8.10;2.30;;;;;;;5.95;59.56;98887.73;220928;1278;139037;-58
2022/02/05 09:34:22;;;;;;;8.00;2.00;;;;;;;6.07;59.27;98891.94;220667;1280;139357;-58
2022/02/05 09:39:25;;;;;;;7.30;2.60;;;;;;;6.11;58.74;98902.14;220698;1279;139665;-59
2022/02/05 09:44:30;;;;;;;8.20;3.40;;;;;;;6.09;58.49;98906.61;220832;1278;139638;-57
2022/02/05 09:49:33;;;;;;;4.10;1.80;;;;;;;6.12;58.20;98901.23;220836;1279;139661;-59
2022/02/05 09:54:38;;;;;;;13.20;1.80;;;;;;;6.10;57.98;98894.07;220551;1280;139775;-60
2022/02/05 09:59:47;;;;;;;4.80;1.70;;;;;;;6.10;57.67;98890.35;220783;1278;139571;-60
2022/02/05 10:05:09;;;;;;;6.90;1.60;;;;;;;6.10;57.27;98891.63;220501;1280;138774;-61
2022/02/05 10:10:35;;;;;;;4.60;1.70;;;;;;;6.10;57.33;98889.48;220833;1280;139329;-60
2022/02/05 10:15:41;;;;;;;5.50;1.90;;;;;;;6.15;57.06;98896.13;220907;1277;139524;-60
2022/02/05 10:20:44;;;;;;;6.60;1.90;;;;;;;6.14;56.61;98897.95;221135;1277;138864;-60
2022/02/05 10:25:50;;;;;;;6.50;2.10;;;;;;;6.18;56.64;98887.19;220866;1277;138815;-58
2022/02/05 10:30:54;;;;;;;5.20;1.80;;;;;;;6.25;56.85;98891.80;221054;1277;139223;-58
2022/02/05 10:36:24;;;;;;;8.70;1.80;;;;;;;6.33;56.72;98883.13;220840;1279;139695;-59
2022/02/05 10:46:54;;;;;;;6.40;2.10;;;;;;;6.47;55.96;98886.55;220805;1278;138950;-60
2022/02/05 10:51:59;;;;;;;7.50;2.00;;;;;;;6.49;55.74;98883.63;220540;1280;140061;-58
2022/02/05 10:57:20;;;;;;;5.30;1.60;;;;;;;6.46;55.46;98883.97;220986;1277;139377;-60
2022/02/05 11:07:57;;;;;;;3.40;1.40;;;;;;;6.57;55.02;98884.45;220767;1279;140547;-59
2022/02/05 11:18:52;;;;;;;5.80;1.80;;;;;;;6.58;54.40;98897.65;221034;1277;139536;-58
2022/02/05 11:24:16;;;;;;;6.00;2.80;;;;;;;6.52;53.98;98889.64;220879;1277;139664;-58
2022/02/05 11:29:27;;;;;;;4.60;1.60;;;;;;;6.51;53.93;98890.58;220776;1279;138793;-60
2022/02/05 11:34:36;;;;;;;5.00;1.90;;;;;;;6.52;53.88;98886.99;220734;1280;139427;-59
2022/02/05 11:39:51;;;;;;;8.70;1.90;;;;;;;6.57;53.89;98885.54;220703;1279;139002;-59
2022/02/05 11:44:56;;;;;;;14.90;2.10;;;;;;;6.65;53.89;98885.64;220973;1280;138971;-58
2022/02/05 11:49:59;;;;;;;4.90;1.90;;;;;;;6.75;53.62;98880.78;220922;1278;140087;-60
2022/02/05 11:55:04;;;;;;;3.80;1.60;;;;;;;6.84;53.69;98888.61;221005;1277;138816;-60
2022/02/05 12:00:12;;;;;;;9.60;1.80;;;;;;;6.88;53.70;98888.78;220975;1278;140049;-60
2022/02/05 12:05:19;;;;;;;4.90;1.70;;;;;;;6.94;53.48;98893.24;220931;1277;139161;-59
2022/02/05 12:10:35;;;;;;;78.50;45.00;;;;;;;6.96;53.15;98895.11;220676;1280;139549;-59
2022/02/05 12:15:39;;;;;;;8.20;3.50;;;;;;;6.99;53.16;98907.46;220719;1279;138968;-59
2022/02/05 12:21:12;;;;;;;5.70;2.00;;;;;;;6.96;52.71;98902.30;220855;1279;139373;-60
2022/02/05 12:26:30;;;;;;;6.50;1.60;;;;;;;6.79;52.70;98905.79;220815;1278;141340;-57
2022/02/05 12:31:36;;;;;;;5.40;2.10;;;;;;;6.79;53.15;98905.10;220829;1280;139128;-60
2022/02/05 12:36:43;;;;;;;6.00;2.00;;;;;;;7.02;53.64;98896.86;220435;1278;140222;-55
2022/02/05 12:41:54;;;;;;;5.00;1.70;;;;;;;7.34;53.21;98899.14;220307;1280;138725;-59
2022/02/05 12:47:03;;;;;;;5.10;2.30;;;;;;;7.46;52.78;98890.27;220802;1277;138686;-59
2022/02/05 12:52:06;;;;;;;8.10;2.80;;;;;;;7.47;52.81;98905.56;220732;1278;140024;-59
2022/02/05 12:57:17;;;;;;;6.50;2.70;;;;;;;7.54;52.85;98910.16;220787;1279;141272;-60
2022/02/05 13:02:23;;;;;;;7.40;2.10;;;;;;;7.31;52.96;98922.79;220473;1279;138929;-59
2022/02/05 13:07:28;;;;;;;4.20;1.70;;;;;;;6.96;53.12;98928.06;220608;1279;140248;-59
2022/02/05 13:12:33;;;;;;;7.40;1.80;;;;;;;6.63;53.50;98945.49;220585;1279;139743;-58
2022/02/05 13:28:30;;;;;;;5.50;2.30;;;;;;;6.07;55.28;98932.77;220537;1281;139378;-60
2022/02/05 13:33:53;;;;;;;6.10;2.60;;;;;;;5.97;55.55;98930.08;220714;1280;139883;-59
2022/02/05 13:44:15;;;;;;;8.30;4.10;;;;;;;5.91;56.72;98927.13;220773;1279;138809;-58
2022/02/05 13:49:19;;;;;;;6.60;3.50;;;;;;;6.00;57.15;98928.16;220720;1277;139908;-58
2022/02/05 13:54:33;;;;;;;13.90;3.70;;;;;;;6.10;57.04;98912.56;220727;1279;139011;-58
2022/02/05 13:59:36;;;;;;;10.90;4.10;;;;;;;6.24;57.28;98917.05;220869;1277;138809;-58
2022/02/05 14:04:39;;;;;;;10.10;3.70;;;;;;;6.34;57.13;98922.37;220890;1277;138944;-58
2022/02/05 14:09:42;;;;;;;5.50;3.40;;;;;;;6.34;56.94;98920.61;220950;1277;140755;-58
2022/02/05 14:15:03;;;;;;;9.90;3.70;;;;;;;6.27;56.71;98932.55;220887;1278;139690;-58
2022/02/05 14:20:09;;;;;;;9.00;3.20;;;;;;;6.13;56.46;98934.28;220744;1278;139342;-59
2022/02/05 14:25:33;;;;;;;8.20;3.10;;;;;;;6.01;56.58;98945.39;220572;1279;217883;-60
2022/02/05 14:30:41;;;;;;;7.40;2.50;;;;;;;5.92;56.50;98968.14;221053;1277;139493;-58
2022/02/05 14:36:38;;;;;;;8.40;2.90;;;;;;;5.80;56.45;98985.89;220713;1279;139358;-58
2022/02/05 14:41:11;;;;;;;6.90;2.50;;;;;;;5.70;56.70;99040.55;220636;1279;139238;-58
2022/02/05 14:46:14;;;;;;;5.20;2.40;;;;;;;5.45;57.34;99061.11;220784;1279;139437;-57
2022/02/05 14:51:17;;;;;;;4.20;2.10;;;;;;;4.94;57.96;99051.52;220757;1279;139418;-58
2022/02/05 14:56:20;;;;;;;4.70;2.60;;;;;;;4.58;58.88;99054.33;220697;1279;138599;-55
2022/02/05 15:01:25;;;;;;;7.50;3.40;;;;;;;4.44;59.85;99047.27;220715;1280;138717;-55
2022/02/05 15:06:31;;;;;;;6.50;2.90;;;;;;;4.37;60.36;99054.41;221023;1277;139733;-56
2022/02/05 15:11:34;;;;;;;6.10;2.90;;;;;;;4.35;60.61;99077.14;220665;1278;140456;-58
2022/02/05 15:16:38;;;;;;;4.50;2.50;;;;;;;4.35;61.31;99088.55;220834;1277;139064;-57
2022/02/05 15:21:42;;;;;;;6.40;3.20;;;;;;;4.38;61.30;99085.45;220769;1278;139537;-58
2022/02/05 15:26:45;;;;;;;7.00;3.30;;;;;;;4.40;61.75;99089.23;220546;1279;138669;-55
2022/02/05 15:31:49;;;;;;;6.30;3.40;;;;;;;4.39;61.95;99101.23;220651;1279;139439;-55
2022/02/05 15:37:02;;;;;;;7.10;3.80;;;;;;;4.39;61.86;99104.39;220890;1277;138948;-55
2022/02/05 15:47:27;;;;;;;8.80;3.50;;;;;;;4.19;62.23;99106.14;220777;1278;139495;-58
2022/02/05 15:52:31;;;;;;;6.80;3.60;;;;;;;4.12;62.76;99109.21;220586;1280;140426;-57
2022/02/05 16:02:55;;;;;;;6.50;3.60;;;;;;;3.96;62.90;99120.63;220847;1277;139878;-59
2022/02/05 16:07:58;;;;;;;8.30;4.10;;;;;;;3.91;63.03;99124.30;220573;1279;139236;-56
2022/02/05 16:13:01;;;;;;;7.20;4.10;;;;;;;3.89;63.38;99135.59;220716;1277;138674;-59
2022/02/05 16:18:04;;;;;;;10.10;5.00;;;;;;;3.89;63.36;99139.29;220826;1277;139159;-59
2022/02/05 16:23:07;;;;;;;8.90;4.60;;;;;;;3.89;63.29;99149.29;220611;1280;140546;-59
2022/02/05 16:28:11;;;;;;;18.40;10.30;;;;;;;4.01;64.39;99160.84;220665;1279;139140;-60
2022/02/05 16:33:18;;;;;;;10.30;5.40;;;;;;;4.19;64.10;99171.63;220782;1279;140372;-58
2022/02/05 16:38:29;;;;;;;9.60;4.30;;;;;;;4.14;63.78;99177.77;220618;1279;140656;-56
2022/02/05 16:43:39;;;;;;;8.40;4.30;;;;;;;4.09;63.46;99175.15;220615;1279;139789;-58
2022/02/05 16:48:42;;;;;;;9.30;4.80;;;;;;;4.07;63.45;99179.93;220609;1278;138899;-57
2022/02/05 16:53:50;;;;;;;13.60;5.10;;;;;;;4.05;63.14;99188.27;220712;1279;138818;-56
2022/02/05 16:58:53;;;;;;;8.10;4.30;;;;;;;3.98;63.35;99203.08;220650;1278;138597;-59
2022/02/05 17:03:59;;;;;;;8.30;4.10;;;;;;;3.93;63.09;99216.39;220777;1277;139224;-58
2022/02/05 17:09:05;;;;;;;14.50;8.50;;;;;;;4.05;64.72;99218.09;220771;1278;139744;-57
2022/02/05 17:14:08;;;;;;;11.60;4.70;;;;;;;4.20;64.00;99218.48;220781;1280;139172;-58
2022/02/05 17:19:12;;;;;;;9.30;4.20;;;;;;;4.09;63.30;99222.55;220705;1277;139634;-58
2022/02/05 17:24:15;;;;;;;8.20;3.60;;;;;;;3.97;63.08;99225.93;220745;1278;138955;-58
2022/02/05 17:29:18;;;;;;;10.70;4.30;;;;;;;3.96;63.43;99234.71;220564;1280;139464;-57
2022/02/05 17:34:21;;;;;;;11.80;4.40;;;;;;;4.01;63.44;99236.84;220779;1277;139878;-58
2022/02/05 17:39:24;;;;;;;12.30;4.80;;;;;;;4.02;63.51;99240.83;221020;1275;139507;-57
2022/02/05 17:44:28;;;;;;;12.00;4.70;;;;;;;4.01;63.06;99247.19;220698;1280;139168;-55
2022/02/05 17:49:31;;;;;;;11.00;4.80;;;;;;;4.00;63.07;99248.98;220492;1280;139075;-58
2022/02/05 17:54:39;;;;;;;10.50;5.00;;;;;;;3.96;63.02;99256.13;220122;1280;139596;-57
2022/02/05 17:59:45;;;;;;;15.70;5.90;;;;;;;3.93;62.83;99255.88;220572;1279;139130;-58
2022/02/05 18:04:48;;;;;;;11.60;4.90;;;;;;;3.88;62.78;99266.20;220675;1280;140410;-56
2022/02/05 18:10:09;;;;;;;47.60;19.50;;;;;;;3.95;63.86;99267.39;220812;1279;138567;-57
2022/02/05 18:15:12;;;;;;;13.80;5.50;;;;;;;4.12;63.51;99265.09;220771;1277;138964;-57
2022/02/05 18:20:17;;;;;;;11.30;4.70;;;;;;;4.05;62.93;99262.00;220566;1280;139730;-57
2022/02/05 18:25:20;;;;;;;12.10;5.00;;;;;;;3.97;62.80;99260.48;220787;1276;139815;-56
2022/02/05 18:30:23;;;;;;;12.10;5.20;;;;;;;3.95;63.08;99264.23;220792;1279;141227;-57
2022/02/05 18:35:26;;;;;;;12.10;5.50;;;;;;;3.93;62.96;99269.94;220672;1279;139163;-58
2022/02/05 18:40:29;;;;;;;11.60;6.00;;;;;;;3.82;63.02;99270.45;220670;1277;139408;-57
2022/02/05 18:45:34;;;;;;;15.60;7.90;;;;;;;3.70;63.20;99279.04;220840;1277;139128;-57
2022/02/05 18:50:39;;;;;;;17.50;7.80;;;;;;;3.64;63.26;99283.99;220498;1280;139156;-58
2022/02/05 18:55:43;;;;;;;15.10;8.10;;;;;;;3.53;63.34;99281.84;220609;1279;138910;-58
2022/02/05 19:22:14;;;;;;;17.70;9.10;;;;;;;3.67;63.82;99279.69;220749;1277;139136;-58
2022/02/05 19:27:17;;;;;;;20.10;9.60;;;;;;;3.58;63.74;99277.14;220829;1279;139137;-56
2022/02/05 19:32:20;;;;;;;19.90;10.10;;;;;;;3.49;63.99;99283.02;220679;1279;139574;-57
2022/02/05 19:37:23;;;;;;;20.00;10.40;;;;;;;3.45;64.13;99288.91;220708;1279;139496;-58
2022/02/05 19:42:26;;;;;;;21.20;11.20;;;;;;;3.42;64.32;99284.96;220788;1277;139792;-59
2022/02/05 19:47:42;;;;;;;25.40;12.40;;;;;;;3.41;64.06;99290.80;220854;1277;140081;-57
2022/02/05 19:52:45;;;;;;;22.30;11.60;;;;;;;3.38;64.09;99294.75;220775;1277;139947;-59
2022/02/05 19:57:48;;;;;;;26.00;12.80;;;;;;;3.33;64.23;99295.94;220790;1279;139797;-57
2022/02/05 20:02:56;;;;;;;22.70;11.70;;;;;;;3.34;64.41;99293.10;220692;1280;140525;-57
2022/02/05 20:08:16;;;;;;;23.00;12.20;;;;;;;3.39;64.33;99288.04;220556;1279;139211;-58
2022/02/05 20:13:19;;;;;;;69.70;42.50;;;;;;;3.44;64.60;99292.81;220688;1278;140260;-59
2022/02/05 20:18:26;;;;;;;36.50;19.00;;;;;;;3.68;65.52;99293.51;220727;1279;139541;-62
2022/02/05 20:23:30;;;;;;;29.20;13.70;;;;;;;3.90;65.11;99291.24;220716;1280;139613;-56
2022/02/05 20:28:33;;;;;;;28.60;14.80;;;;;;;3.80;64.21;99292.98;220792;1279;139396;-55
2022/02/05 20:33:37;;;;;;;29.90;14.60;;;;;;;3.69;64.08;99298.23;220712;1280;139304;-58
2022/02/05 20:38:40;;;;;;;29.90;14.80;;;;;;;3.58;64.08;99297.83;220699;1279;139809;-56
2022/02/05 20:43:43;;;;;;;30.20;16.20;;;;;;;3.50;63.97;99298.75;220754;1279;139436;-56
2022/02/05 20:48:46;;;;;;;34.10;16.50;;;;;;;3.46;64.29;99292.92;220763;1279;139894;-57
2022/02/05 20:53:54;;;;;;;35.30;17.40;;;;;;;3.42;64.10;99294.98;220734;1279;140257;-58
2022/02/05 20:58:59;;;;;;;42.90;18.10;;;;;;;3.42;64.31;99285.85;220609;1278;139781;-56
2022/02/05 21:04:06;;;;;;;34.50;18.10;;;;;;;3.45;64.03;99280.15;220999;1277;140281;-57
2022/02/05 21:09:14;;;;;;;36.70;18.60;;;;;;;3.52;64.23;99282.03;220525;1278;140493;-57
2022/02/05 21:14:21;;;;;;;35.70;16.90;;;;;;;3.58;64.08;99285.55;220502;1278;139135;-57
2022/02/05 21:19:24;;;;;;;35.30;17.00;;;;;;;3.56;64.12;99283.66;220768;1278;139670;-56
2022/02/05 21:24:28;;;;;;;31.60;15.30;;;;;;;3.54;64.15;99282.70;220758;1279;138892;-57
2022/02/05 21:29:35;;;;;;;29.70;15.20;;;;;;;3.52;63.97;99279.77;220858;1279;140322;-58
2022/02/05 21:34:47;;;;;;;33.30;15.60;;;;;;;3.51;63.75;99280.14;220622;1279;139691;-59
2022/02/05 21:39:53;;;;;;;29.80;15.20;;;;;;;3.51;63.91;99278.38;220220;1279;139019;-58
2022/02/05 21:44:56;;;;;;;32.20;14.80;;;;;;;3.52;63.92;99277.49;220790;1279;139328;-57
2022/02/05 21:50:10;;;;;;;24.20;12.50;;;;;;;3.46;63.61;99267.49;220722;1279;139032;-57
2022/02/05 21:55:20;;;;;;;24.40;11.90;;;;;;;3.43;63.61;99273.73;220758;1277;139351;-56
2022/02/05 22:00:23;;;;;;;25.30;12.10;;;;;;;3.45;63.65;99266.28;220682;1279;141012;-59
2022/02/05 22:05:26;;;;;;;26.30;12.20;;;;;;;3.52;63.61;99273.27;220722;1279;139473;-56
2022/02/05 22:10:30;;;;;;;23.20;11.50;;;;;;;3.56;63.69;99273.17;220884;1277;139003;-58
2022/02/05 22:15:33;;;;;;;27.20;11.90;;;;;;;3.58;63.63;99273.42;220892;1279;139689;-58
2022/02/05 22:20:36;;;;;;;26.80;11.90;;;;;;;3.58;63.36;99273.29;220675;1279;139996;-56
2022/02/05 22:25:39;;;;;;;23.20;11.60;;;;;;;3.52;63.46;99267.30;220864;1278;138715;-59
2022/02/05 22:30:43;;;;;;;20.90;10.90;;;;;;;3.48;63.34;99257.23;220611;1279;139763;-58
2022/02/05 22:35:46;;;;;;;23.20;11.20;;;;;;;3.45;63.33;99257.69;220870;1279;139027;-57
2022/02/05 22:40:49;;;;;;;25.40;11.30;;;;;;;3.44;63.12;99253.34;220854;1277;139070;-58
2022/02/05 22:45:52;;;;;;;24.60;11.40;;;;;;;3.44;63.45;99243.35;220945;1277;139062;-56
2022/02/05 22:50:56;;;;;;;23.80;10.90;;;;;;;3.45;63.13;99235.77;220823;1277;139081;-54
2022/02/05 22:55:59;;;;;;;19.30;10.30;;;;;;;3.45;63.32;99238.24;220677;1279;139551;-56
2022/02/05 23:01:05;;;;;;;20.90;10.70;;;;;;;3.46;63.14;99234.33;221058;1277;139166;-57
2022/02/05 23:06:08;;;;;;;;;;;;;;;3.45;63.07;99231.89;220673;1280;139609;-57
2022/02/05 23:43:05;;;;;;;19.20;8.70;;;;;;;3.47;62.78;99217.14;220377;1278;139647;-59
2022/02/05 23:48:10;;;;;;;19.90;9.00;;;;;;;3.41;62.68;99209.08;220993;1277;138900;-58
2022/02/05 23:53:13;;;;;;;15.90;8.50;;;;;;;3.30;62.67;99208.16;220875;1280;139884;-59
2022/02/05 23:58:17;;;;;;;19.00;8.40;;;;;;;3.27;62.80;99195.80;220867;1277;139392;-60
